createdAt,value
2018-09-10T00:00:18.634Z,68.20
2018-09-10T00:02:47.237Z,68.10
2018-09-10T00:05:14.981Z,68.20
2018-09-10T00:07:43.895Z,67.96
2018-09-10T00:10:12.218Z,67.90
2018-09-10T00:12:40.553Z,67.81
2018-09-10T00:15:08.875Z,67.72
2018-09-10T00:17:37.201Z,67.74
2018-09-10T00:20:04.958Z,67.87
2018-09-10T00:22:33.856Z,67.98
2018-09-10T00:25:01.593Z,68.14
2018-09-10T00:27:30.490Z,68.21
2018-09-10T00:29:58.842Z,68.26
2018-09-10T00:32:27.165Z,68.26
2018-09-10T00:34:55.478Z,68.17
2018-09-10T00:37:23.341Z,68.03
2018-09-10T00:39:52.139Z,68.13
2018-09-10T00:42:19.879Z,68.22
2018-09-10T00:44:48.786Z,68.41
2018-09-10T00:47:16.529Z,68.31
2018-09-10T00:49:45.434Z,68.39
2018-09-10T00:52:14.551Z,68.30
2018-09-10T00:54:42.869Z,68.20
2018-09-10T00:57:11.209Z,68.07
2018-09-10T00:59:38.959Z,68.07
2018-09-10T01:02:07.859Z,68.23
2018-09-10T01:04:36.180Z,68.41
2018-09-10T01:07:03.915Z,68.27
2018-09-10T01:09:32.814Z,68.44
2018-09-10T01:12:01.379Z,68.48
2018-09-10T01:14:29.475Z,68.66
2018-09-10T01:16:57.214Z,68.80
2018-09-10T01:19:26.120Z,68.79
2018-09-10T01:21:54.447Z,68.85
2018-09-10T01:24:22.194Z,69.01
2018-09-10T01:26:50.521Z,69.13
2018-09-10T01:29:18.850Z,69.14
2018-09-10T01:31:47.757Z,69.35
2018-09-10T01:34:16.083Z,69.57
2018-09-10T01:36:43.825Z,69.67
2018-09-10T01:39:12.249Z,69.75
2018-09-10T01:41:40.505Z,69.76
2018-09-10T01:44:09.409Z,69.87
2018-09-10T01:46:37.728Z,69.80
2018-09-10T01:49:06.047Z,69.97
2018-09-10T01:51:34.381Z,70.48
2018-09-10T01:54:02.697Z,70.60
2018-09-10T01:56:31.010Z,70.62
2018-09-10T01:58:58.753Z,70.24
2018-09-10T02:01:27.660Z,69.95
2018-09-10T02:03:55.989Z,69.76
2018-09-10T02:06:23.725Z,69.62
2018-09-10T02:08:52.633Z,69.66
2018-09-10T02:11:21.177Z,69.66
2018-09-10T02:13:49.285Z,69.63
2018-09-10T02:16:17.600Z,69.66
2018-09-10T02:18:45.381Z,69.70
2018-09-10T02:21:14.260Z,69.80
2018-09-10T02:23:42.663Z,69.83
2018-09-10T02:26:10.522Z,69.94
2018-09-10T02:28:39.236Z,69.99
2018-09-10T02:31:07.575Z,69.69
2018-09-10T02:33:35.890Z,69.41
2018-09-10T02:36:04.215Z,69.44
2018-09-10T02:38:32.552Z,69.56
2018-09-10T02:41:00.850Z,69.65
2018-09-10T02:43:29.185Z,69.69
2018-09-10T02:45:57.506Z,69.78
2018-09-10T02:48:25.840Z,69.86
2018-09-10T02:50:53.580Z,70.24
2018-09-10T02:53:21.893Z,70.52
2018-09-10T02:55:50.805Z,70.71
2018-09-10T02:58:19.123Z,70.64
2018-09-10T03:00:46.872Z,70.59
2018-09-10T03:03:15.775Z,70.43
2018-09-10T03:05:44.092Z,70.24
2018-09-10T03:08:12.418Z,70.29
2018-09-10T03:10:40.166Z,70.30
2018-09-10T03:13:09.078Z,70.24
2018-09-10T03:15:38.306Z,70.28
2018-09-10T03:18:06.485Z,70.27
2018-09-10T03:20:34.747Z,70.40
2018-09-10T03:23:03.070Z,70.68
2018-09-10T03:25:31.390Z,70.79
2018-09-10T03:27:59.704Z,70.67
2018-09-10T03:30:28.033Z,70.59
2018-09-10T03:32:55.793Z,70.50
2018-09-10T03:35:25.397Z,70.47
2018-09-10T03:37:52.459Z,70.71
2018-09-10T03:40:21.374Z,70.76
2018-09-10T03:42:49.704Z,70.85
2018-09-10T03:45:18.070Z,71.11
2018-09-10T03:47:45.797Z,71.15
2018-09-10T03:50:14.126Z,71.88
2018-09-10T03:52:42.490Z,72.73
2018-09-10T03:55:10.818Z,72.87
2018-09-10T03:57:39.723Z,72.85
2018-09-10T04:00:07.524Z,72.58
2018-09-10T04:02:35.844Z,72.46
2018-09-10T04:05:04.755Z,72.42
2018-09-10T04:07:32.486Z,72.27
2018-09-10T04:10:01.396Z,72.23
2018-09-10T04:12:29.720Z,72.18
2018-09-10T04:14:58.050Z,72.23
2018-09-10T04:17:26.365Z,72.17
2018-09-10T04:19:54.112Z,72.16
2018-09-10T04:22:23.022Z,72.17
2018-09-10T04:24:50.765Z,72.24
2018-09-10T04:27:19.685Z,72.23
2018-09-10T04:29:47.997Z,72.30
2018-09-10T04:32:16.376Z,72.41
2018-09-10T04:34:44.104Z,72.46
2018-09-10T04:37:13.001Z,72.51
2018-09-10T04:39:41.322Z,72.69
2018-09-10T04:42:09.674Z,72.67
2018-09-10T04:44:37.971Z,72.65
2018-09-10T04:47:05.743Z,72.48
2018-09-10T04:49:34.662Z,72.10
2018-09-10T04:52:03.782Z,71.99
2018-09-10T04:54:31.331Z,71.89
2018-09-10T04:56:59.682Z,71.82
2018-09-10T04:59:28.002Z,71.76
2018-09-10T05:01:56.336Z,71.60
2018-09-10T05:04:24.735Z,71.41
2018-09-10T05:06:52.421Z,71.58
2018-09-10T05:11:50.881Z,71.45
2018-09-10T05:14:18.628Z,71.50
2018-09-10T05:16:46.946Z,71.62
2018-09-10T05:19:15.842Z,71.53
2018-09-10T05:21:44.162Z,71.35
2018-09-10T05:24:12.485Z,71.11
2018-09-10T05:26:40.822Z,71.00
2018-09-10T05:29:08.565Z,70.87
2018-09-10T05:31:36.894Z,70.69
2018-09-10T05:34:05.794Z,70.61
2018-09-10T05:36:34.156Z,70.57
2018-09-10T05:39:01.901Z,70.67
2018-09-10T05:41:30.315Z,70.55
2018-09-10T05:43:59.142Z,70.51
2018-09-10T05:46:27.497Z,70.51
2018-09-10T05:48:55.860Z,70.51
2018-09-10T05:51:24.206Z,70.47
2018-09-10T05:53:52.541Z,70.50
2018-09-10T05:56:20.857Z,70.42
2018-09-10T05:58:48.720Z,70.30
2018-09-10T06:01:17.656Z,70.38
2018-09-10T06:03:46.009Z,70.64
2018-09-10T06:06:14.346Z,70.58
2018-09-10T06:08:42.106Z,70.41
2018-09-10T06:11:10.577Z,68.29
2018-09-10T06:13:39.369Z,68.13
2018-09-10T06:16:07.160Z,68.37
2018-09-10T06:18:36.223Z,68.52
2018-09-10T06:21:03.818Z,68.67
2018-09-10T06:23:32.719Z,68.60
2018-09-10T06:26:01.279Z,68.60
2018-09-10T06:28:28.809Z,68.39
2018-09-10T06:30:57.716Z,68.25
2018-09-10T06:33:25.495Z,68.24
2018-09-10T06:35:54.410Z,68.07
2018-09-10T06:38:22.748Z,68.04
2018-09-10T06:40:51.042Z,67.89
2018-09-10T06:43:19.393Z,67.74
2018-09-10T06:45:47.726Z,67.51
2018-09-10T06:48:15.757Z,67.21
2018-09-10T06:50:44.719Z,67.16
2018-09-10T06:53:13.031Z,67.02
2018-09-10T06:55:41.359Z,66.72
2018-09-10T07:01:30.449Z,66.62
2018-09-10T07:03:43.919Z,66.35
2018-09-10T07:06:12.298Z,66.11
2018-09-10T07:08:40.893Z,65.96
2018-09-10T07:11:09.272Z,65.80
2018-09-10T07:13:37.020Z,65.69
2018-09-10T07:16:05.919Z,65.68
2018-09-10T07:18:34.322Z,65.54
2018-09-10T07:21:02.594Z,65.36
2018-09-10T07:23:30.915Z,65.01
2018-09-10T07:25:59.239Z,64.35
2018-09-10T07:28:26.979Z,64.58
2018-09-10T07:30:55.893Z,63.64
2018-09-10T07:33:24.220Z,63.61
2018-09-10T07:35:52.579Z,62.71
2018-09-10T07:38:20.925Z,60.85
2018-09-10T07:40:49.289Z,61.14
2018-09-10T07:43:17.035Z,60.45
2018-09-10T07:45:45.956Z,58.14
2018-09-10T07:48:14.336Z,55.56
2018-09-10T07:50:42.666Z,53.30
2018-09-10T07:53:10.406Z,53.05
2018-09-10T07:55:38.830Z,52.24
2018-09-10T07:58:07.989Z,51.22
2018-09-10T08:00:36.309Z,50.20
2018-09-10T08:03:04.478Z,49.91
2018-09-10T08:05:32.976Z,49.87
2018-09-10T08:08:01.312Z,49.06
2018-09-10T08:10:29.079Z,48.83
2018-09-10T08:12:57.997Z,48.72
2018-09-10T08:15:26.353Z,47.67
2018-09-10T08:17:54.675Z,46.79
2018-09-10T08:20:22.945Z,46.52
2018-09-10T08:22:51.336Z,45.78
2018-09-10T08:25:19.131Z,45.87
2018-09-10T08:27:47.999Z,45.49
2018-09-10T08:30:16.347Z,44.55
2018-09-10T08:32:45.445Z,45.29
2018-09-10T08:35:13.843Z,44.71
2018-09-10T08:37:44.129Z,44.54
2018-09-10T08:40:12.720Z,43.88
2018-09-10T08:42:40.471Z,43.86
2018-09-10T08:45:09.383Z,43.82
2018-09-10T08:47:37.155Z,43.45
2018-09-10T08:50:06.066Z,42.99
2018-09-10T08:52:34.384Z,41.40
2018-09-10T08:55:02.386Z,41.32
2018-09-10T08:57:31.053Z,41.24
2018-09-10T08:59:58.801Z,40.01
2018-09-10T09:02:27.130Z,39.98
2018-09-10T09:04:55.450Z,39.55
2018-09-10T09:07:24.363Z,39.86
2018-09-10T09:09:52.690Z,39.43
2018-09-10T09:12:21.010Z,39.27
2018-09-10T09:14:49.341Z,39.25
2018-09-10T09:17:17.284Z,39.08
2018-09-10T09:19:45.617Z,39.22
2018-09-10T09:22:13.985Z,38.52
2018-09-10T09:24:45.762Z,38.19
2018-09-10T09:27:11.622Z,38.25
2018-09-10T09:29:39.959Z,38.34
2018-09-10T09:32:08.288Z,37.98
2018-09-10T09:34:36.198Z,37.43
2018-09-10T09:37:10.505Z,37.52
2018-09-10T09:39:38.846Z,37.66
2018-09-10T09:42:07.203Z,36.93
2018-09-10T09:44:36.335Z,36.83
2018-09-10T09:47:04.888Z,37.36
2018-09-10T09:49:33.236Z,36.17
2018-09-10T09:52:01.332Z,37.35
2018-09-10T09:54:29.671Z,37.15
2018-09-10T09:56:58.023Z,36.88
2018-09-10T09:59:26.337Z,37.15
2018-09-10T10:01:54.658Z,37.22
2018-09-10T10:04:23.048Z,37.14
2018-09-10T10:06:50.745Z,37.22
2018-09-10T10:09:19.638Z,36.80
2018-09-10T10:11:49.116Z,36.73
2018-09-10T10:14:16.363Z,36.58
2018-09-10T10:16:44.709Z,37.09
2018-09-10T10:19:12.462Z,36.77
2018-09-10T10:21:41.375Z,36.20
2018-09-10T10:24:09.706Z,37.11
2018-09-10T10:26:37.454Z,36.66
2018-09-10T10:29:06.385Z,36.76
2018-09-10T10:31:34.732Z,36.29
2018-09-10T10:34:03.075Z,36.10
2018-09-10T10:36:32.136Z,36.04
2018-09-10T10:39:00.680Z,36.20
2018-09-10T10:41:28.786Z,36.55
2018-09-10T10:43:56.533Z,36.55
2018-09-10T10:46:25.474Z,36.33
2018-09-10T10:48:53.941Z,36.13
2018-09-10T10:51:22.854Z,36.51
2018-09-10T10:53:52.164Z,36.32
2018-09-10T10:56:20.424Z,36.83
2018-09-10T10:58:48.691Z,37.58
2018-09-10T11:01:17.031Z,37.05
2018-09-10T11:03:45.363Z,37.26
2018-09-10T11:06:13.704Z,37.68
2018-09-10T11:08:42.477Z,37.13
2018-09-10T11:11:11.426Z,37.66
2018-09-10T11:13:39.908Z,37.06
2018-09-10T11:16:08.234Z,37.05
2018-09-10T11:18:36.793Z,36.63
2018-09-10T11:21:05.678Z,36.20
2018-09-10T11:23:34.003Z,36.31
2018-09-10T11:26:02.322Z,35.75
2018-09-10T11:28:30.651Z,35.83
2018-09-10T11:30:59.039Z,36.15
2018-09-10T11:33:26.889Z,35.89
2018-09-10T11:35:55.711Z,36.08
2018-09-10T11:38:24.038Z,36.00
2018-09-10T11:40:52.370Z,35.05
2018-09-10T11:43:20.692Z,35.12
2018-09-10T11:45:48.436Z,35.35
2018-09-10T11:48:17.347Z,35.71
2018-09-10T11:50:45.677Z,35.36
2018-09-10T11:53:14.003Z,34.76
2018-09-10T11:55:42.614Z,35.00
2018-09-10T11:58:11.202Z,35.08
2018-09-10T12:00:40.104Z,34.46
2018-09-10T12:03:08.422Z,33.52
2018-09-10T12:05:36.751Z,34.08
2018-09-10T12:08:05.090Z,33.79
2018-09-10T12:10:33.639Z,32.81
2018-09-10T12:13:01.735Z,33.05
2018-09-10T12:15:30.113Z,33.04
2018-09-10T12:17:58.455Z,32.39
2018-09-10T12:20:26.698Z,32.24
2018-09-10T12:22:56.440Z,31.92
2018-09-10T12:25:24.757Z,32.14
2018-09-10T12:27:53.074Z,32.49
2018-09-10T12:30:20.819Z,32.14
2018-09-10T12:32:49.157Z,31.89
2018-09-10T12:35:17.486Z,31.41
2018-09-10T12:37:46.390Z,31.82
2018-09-10T12:40:18.283Z,32.17
2018-09-10T12:42:47.740Z,32.31
2018-09-10T12:45:16.092Z,32.17
2018-09-10T12:47:44.399Z,32.06
2018-09-10T12:50:12.210Z,31.16
2018-09-10T12:52:41.128Z,30.88
2018-09-10T12:55:09.684Z,30.44
2018-09-10T12:57:37.234Z,30.65
2018-09-10T13:00:05.557Z,29.61
2018-09-10T13:02:34.459Z,29.72
2018-09-10T13:05:02.788Z,29.07
2018-09-10T13:07:31.104Z,29.03
2018-09-10T13:09:59.430Z,27.86
2018-09-10T13:12:27.750Z,28.92
2018-09-10T13:14:56.076Z,29.17
2018-09-10T13:17:24.423Z,28.20
2018-09-10T13:19:52.189Z,27.45
2018-09-10T13:22:21.141Z,27.14
2018-09-10T13:24:49.473Z,27.26
2018-09-10T13:27:17.227Z,26.73
2018-09-10T13:29:46.202Z,27.08
2018-09-10T13:32:14.465Z,27.25
2018-09-10T13:34:42.789Z,27.59
2018-09-10T13:37:10.543Z,27.02
2018-09-10T13:39:39.518Z,27.55
2018-09-10T13:42:07.259Z,27.72
2018-09-10T13:44:36.192Z,27.18
2018-09-10T13:47:04.181Z,26.75
2018-09-10T13:49:32.530Z,27.46
2018-09-10T13:52:01.459Z,27.44
2018-09-10T13:54:29.781Z,27.47
2018-09-10T13:56:58.151Z,27.64
2018-09-10T13:59:26.483Z,27.68
2018-09-10T14:01:54.218Z,28.05
2018-09-10T14:04:23.125Z,28.04
2018-09-10T14:06:51.449Z,28.65
2018-09-10T14:09:19.809Z,29.27
2018-09-10T14:11:47.585Z,29.65
2018-09-10T14:14:16.496Z,29.92
2018-09-10T14:16:44.588Z,30.05
2018-09-10T14:19:14.306Z,30.01
2018-09-10T14:21:42.044Z,30.31
2018-09-10T14:24:10.367Z,30.63
2018-09-10T14:26:39.267Z,30.96
2018-09-10T14:29:07.609Z,31.06
2018-09-10T14:31:36.020Z,31.29
2018-09-10T14:34:04.354Z,31.36
2018-09-10T14:36:32.674Z,31.63
2018-09-10T14:39:01.009Z,31.54
2018-09-10T14:41:29.341Z,31.83
2018-09-10T14:43:57.680Z,32.21
2018-09-10T14:46:26.126Z,32.40
2018-09-10T14:48:54.452Z,32.49
2018-09-10T14:51:22.793Z,32.86
2018-09-10T14:53:51.353Z,33.12
2018-09-10T14:56:19.466Z,33.25
2018-09-10T14:58:47.820Z,33.49
2018-09-10T15:01:16.200Z,33.56
2018-09-10T15:03:43.948Z,33.75
2018-09-10T15:06:12.849Z,33.77
2018-09-10T15:08:41.172Z,33.82
2018-09-10T15:11:09.485Z,33.87
2018-09-10T15:13:37.249Z,34.13
2018-09-10T15:16:06.156Z,34.30
2018-09-10T15:18:37.560Z,34.41
2018-09-10T15:21:05.771Z,34.75
2018-09-10T15:23:34.751Z,37.94
2018-09-10T15:26:03.360Z,39.17
2018-09-10T15:28:31.663Z,39.74
2018-09-10T15:31:00.763Z,40.18
2018-09-10T15:33:29.359Z,40.98
2018-09-10T15:35:58.332Z,41.35
2018-09-10T15:38:26.654Z,41.80
2018-09-10T15:40:55.065Z,42.20
2018-09-10T15:43:24.378Z,42.57
2018-09-10T15:45:52.494Z,42.70
2018-09-10T15:48:20.837Z,42.88
2018-09-10T15:50:49.571Z,43.38
2018-09-10T15:53:17.918Z,43.75
2018-09-10T15:55:45.680Z,44.20
2018-09-10T15:58:14.630Z,44.65
2018-09-10T16:00:43.028Z,44.80
2018-09-10T16:03:11.428Z,44.83
2018-09-10T16:05:39.210Z,44.82
2018-09-10T16:08:07.561Z,44.99
2018-09-10T16:10:35.901Z,45.00
2018-09-10T16:13:04.852Z,44.98
2018-09-10T16:15:32.598Z,45.16
2018-09-10T16:18:01.529Z,45.26
2018-09-10T16:20:29.282Z,45.25
2018-09-10T16:22:57.622Z,45.48
2018-09-10T16:25:25.974Z,45.67
2018-09-10T16:27:54.921Z,46.05
2018-09-10T16:30:22.680Z,46.28
2018-09-10T16:32:51.645Z,46.68
2018-09-10T16:35:20.046Z,47.10
2018-09-10T16:37:48.368Z,47.57
2018-09-10T16:40:16.114Z,48.15
2018-09-10T16:42:45.539Z,48.54
2018-09-10T16:45:15.309Z,48.71
2018-09-10T16:47:42.164Z,49.05
2018-09-10T16:50:09.930Z,49.09
2018-09-10T16:52:38.837Z,49.34
2018-09-10T16:55:06.599Z,49.58
2018-09-10T16:57:35.013Z,49.97
2018-09-10T17:00:03.344Z,50.42
2018-09-10T17:02:31.673Z,50.70
2018-09-10T17:05:00.641Z,51.26
2018-09-10T17:07:28.404Z,51.74
2018-09-10T17:09:57.341Z,52.24
2018-09-10T17:12:25.108Z,52.47
2018-09-10T17:14:54.079Z,52.87
2018-09-10T17:17:22.632Z,53.10
2018-09-10T17:19:50.158Z,53.30
2018-09-10T17:22:19.101Z,53.59
2018-09-10T17:24:47.641Z,54.02
2018-09-10T17:27:15.852Z,54.68
2018-09-10T17:29:44.208Z,54.65
2018-09-10T17:32:13.556Z,54.07
2018-09-10T17:34:41.921Z,54.20
2018-09-10T17:37:10.268Z,54.44
2018-09-10T17:39:38.073Z,54.83
2018-09-10T17:42:06.411Z,55.12
2018-09-10T17:44:35.363Z,55.46
2018-09-10T17:47:03.999Z,55.67
2018-09-10T17:49:32.195Z,55.81
2018-09-10T17:52:00.502Z,56.60
2018-09-10T17:54:28.986Z,57.53
2018-09-10T17:56:57.334Z,57.88
2018-09-10T18:01:54.024Z,58.04
2018-09-10T18:04:21.802Z,58.16
2018-09-10T18:06:50.750Z,58.63
2018-09-10T18:09:19.332Z,58.81
2018-09-10T18:11:47.703Z,58.79
2018-09-10T18:14:16.075Z,58.82
2018-09-10T18:16:45.271Z,59.06
2018-09-10T18:19:13.618Z,59.37
2018-09-10T18:21:42.108Z,59.77
2018-09-10T18:24:09.842Z,60.13
2018-09-10T18:26:38.804Z,60.76
2018-09-10T18:29:07.156Z,61.07
2018-09-10T18:31:34.922Z,60.78
2018-09-10T18:34:03.862Z,60.67
2018-09-10T18:36:32.165Z,60.72
2018-09-10T18:39:00.509Z,60.67
2018-09-10T18:41:29.412Z,60.36
2018-09-10T18:43:57.767Z,60.04
2018-09-10T18:46:26.125Z,59.91
2018-09-10T18:48:54.490Z,59.77
2018-09-10T18:51:23.029Z,59.68
2018-09-10T18:53:51.212Z,60.07
2018-09-10T18:56:18.965Z,60.38
2018-09-10T18:58:47.915Z,60.53
2018-09-10T19:01:16.364Z,60.53
2018-09-10T19:03:44.684Z,60.51
2018-09-10T19:06:13.041Z,60.76
2018-09-10T19:08:41.444Z,60.82
2018-09-10T19:11:13.438Z,60.71
2018-09-10T19:13:42.106Z,60.51
2018-09-10T19:16:10.452Z,60.43
2018-09-10T19:18:38.782Z,60.64
2018-09-10T19:21:07.112Z,60.97
2018-09-10T19:23:35.692Z,61.14
2018-09-10T19:26:03.800Z,61.45
2018-09-10T19:28:32.179Z,61.29
2018-09-10T19:31:01.291Z,61.14
2018-09-10T19:33:29.677Z,61.20
2018-09-10T19:38:56.807Z,62.00
2018-09-10T19:41:25.175Z,62.13
2018-09-10T19:43:53.550Z,62.08
2018-09-10T19:46:21.864Z,62.06
2018-09-10T19:48:50.213Z,62.03
2018-09-10T19:51:18.003Z,62.00
2018-09-10T19:53:48.315Z,62.80
2018-09-10T19:56:14.673Z,63.40
2018-09-10T19:58:43.018Z,64.11
2018-09-10T20:01:11.965Z,63.83
2018-09-10T20:03:39.770Z,63.92
2018-09-10T20:06:08.669Z,64.42
2018-09-10T20:08:37.926Z,64.65
2018-09-10T20:11:06.284Z,64.70
2018-09-10T20:13:34.657Z,64.92
2018-09-10T20:16:03.041Z,64.95
2018-09-10T20:18:31.341Z,64.98
2018-09-10T20:20:59.717Z,64.67
2018-09-10T20:23:27.451Z,64.22
2018-09-10T20:25:56.605Z,64.04
2018-09-10T20:28:24.725Z,63.48
2018-09-10T20:30:53.029Z,62.67
2018-09-10T20:33:20.785Z,62.04
2018-09-10T20:35:49.703Z,62.03
2018-09-10T20:38:18.033Z,62.16
2018-09-10T20:40:46.591Z,62.23
2018-09-10T20:43:14.691Z,62.35
2018-09-10T20:45:42.536Z,62.41
2018-09-10T20:48:11.349Z,62.60
2018-09-10T20:50:39.708Z,62.66
2018-09-10T20:53:08.037Z,62.68
2018-09-10T20:55:35.790Z,62.29
2018-09-10T20:58:04.723Z,62.12
2018-09-10T21:00:33.038Z,62.12
2018-09-10T21:03:02.163Z,61.38
2018-09-10T21:05:30.875Z,61.06
2018-09-10T21:07:59.222Z,60.91
2018-09-10T21:10:27.563Z,60.96
2018-09-10T21:12:56.646Z,60.84
2018-09-10T21:15:24.475Z,60.90
2018-09-10T21:17:52.720Z,60.73
2018-09-10T21:20:21.631Z,60.59
2018-09-10T21:22:49.394Z,60.69
2018-09-10T21:25:18.290Z,60.56
2018-09-10T21:27:46.165Z,60.73
2018-09-10T21:30:15.077Z,60.54
2018-09-10T21:32:43.410Z,60.49
2018-09-10T21:35:11.165Z,60.37
2018-09-10T21:37:40.088Z,60.00
2018-09-10T21:40:08.637Z,59.41
2018-09-10T21:42:37.478Z,58.88
2018-09-10T21:45:05.106Z,59.24
2018-09-10T21:47:33.446Z,59.51
2018-09-10T21:50:01.782Z,59.34
2018-09-10T21:52:30.111Z,59.48
2018-09-10T21:54:58.430Z,58.83
2018-09-10T21:57:26.228Z,58.80
2018-09-10T21:59:54.945Z,59.12
2018-09-10T22:02:22.885Z,59.49
2018-09-10T22:04:51.806Z,59.56
2018-09-10T22:07:19.568Z,59.32
2018-09-10T22:09:48.486Z,58.87
2018-09-10T22:12:17.160Z,59.18
2018-09-10T22:14:44.902Z,59.65
2018-09-10T22:17:13.804Z,60.00
2018-09-10T22:19:42.016Z,60.79
2018-09-10T22:22:12.791Z,61.55
2018-09-10T22:24:40.210Z,62.11
2018-09-10T22:27:08.541Z,61.96
2018-09-10T22:29:37.048Z,62.90
2018-09-10T22:32:05.625Z,64.10
2018-09-10T22:34:33.959Z,65.97
2018-09-10T22:37:02.063Z,66.87
2018-09-10T22:39:30.412Z,67.52
2018-09-10T22:41:58.160Z,69.17
2018-09-10T22:44:26.480Z,69.60
2018-09-10T22:46:55.421Z,71.62
2018-09-10T22:49:23.157Z,71.66
2018-09-10T22:51:52.067Z,73.20
2018-09-10T22:54:20.399Z,73.24
2018-09-10T22:56:48.749Z,72.71
2018-09-10T22:59:17.075Z,72.66
2018-09-10T23:01:45.406Z,71.67
2018-09-10T23:04:13.722Z,71.33
2018-09-10T23:06:42.048Z,71.15
2018-09-10T23:09:09.795Z,70.73
2018-09-10T23:11:38.113Z,70.47
2018-09-10T23:14:07.019Z,70.21
2018-09-10T23:16:34.863Z,71.16
2018-09-10T23:19:03.761Z,71.48
2018-09-10T23:21:32.082Z,71.30
2018-09-10T23:23:59.825Z,70.59
2018-09-10T23:26:28.734Z,70.53
2018-09-10T23:28:57.071Z,71.45
2018-09-10T23:31:25.990Z,71.39
2018-09-10T23:33:53.758Z,71.44
2018-09-10T23:36:22.653Z,71.88
2018-09-10T23:38:50.967Z,71.50
2018-09-10T23:41:19.315Z,71.03
2018-09-10T23:43:47.643Z,70.72
2018-09-10T23:46:15.396Z,70.60
2018-09-10T23:48:44.304Z,69.33
2018-09-10T23:51:12.051Z,68.09
2018-09-10T23:53:40.853Z,69.08
2018-09-10T23:56:09.286Z,69.65
2018-09-10T23:58:37.041Z,70.08
